1 juillet 2022

Temps Code Temps Temp. Vue Base cloud Vent METAR/SPECI
8:00 pm
V
81 °F 15 mi 21.000 ft 250° 250° 5 kt METAR CYND 020000Z 25005KT 15SM FEW060TCU SCT090 BKN210 27/17 A2975 RMK TCU2AC1CI3 SLP074 DENSITY ALT 1800FT
7:00 pm
V
82 °F 15 mi 8.500 ft 240° 240° 5 kt METAR CYND 012300Z 24005KT 15SM SCT055 BKN085 BKN210 28/18 A2975 RMK CU4AC2CI1 SLP074 DENSITY ALT 2000FT
6:00 pm
V
82 °F 15 mi 8.500 ft 230° 230° 9 kt METAR CYND 012200Z 23009KT 15SM SCT050 BKN085 BKN210 28/18 A2975 RMK CU4AC1CI1 SLP078 DENSITY ALT 2000FT
5:00 pm
V
82 °F 15 mi - 240° 240° 12 - 22 kt METAR CYND 012100Z 24012G22KT 210V270 15SM SCT050 SCT080 SCT210 28/17 A2978 RMK CU3AC1CI1 AC TR SLP085 DENSITY ALT 2000FT
4:00 pm
V
81 °F 15 mi - 240° 240° 13 kt METAR CYND 012000Z 24013KT 15SM FEW040 SCT080 SCT210 27/17 A2980 RMK CU1AC3CI1 CU TR SLP093 DENSITY ALT 1800FT
3:00 pm
V
79 °F 15 mi 7.500 ft 210° 210° 8 kt METAR CYND 011900Z 21008KT 180V250 15SM FEW035 BKN075 BKN210 26/17 A2981 RMK CU1AC5CI1 CU TR SLP097 DENSITY ALT 1700FT
2:00 pm
V
77 °F 15 mi 18.000 ft 190° 190° 6 kt METAR CYND 011800Z 19006KT 160V220 15SM FEW040 FEW100 BKN180 BKN210 25/18 A2984 RMK CU1AC1AS3CI2 SLP106 DENSITY ALT 1600FT
1:00 pm
V
77 °F 15 mi 17.000 ft 180° 180° 6 kt METAR CYND 011700Z 18006KT 15SM FEW030 FEW100 BKN170 BKN220 25/18 A2985 RMK CU1AC1AS5CI1 CU TR SLP109 DENSITY ALT 1600FT
12:00 pm
V
75 °F 15 mi 16.000 ft 160° 160° 6 kt METAR CYND 011600Z 16006KT 15SM SCT120 BKN160 OVC240 24/16 A2985 RMK AC4AC3CI1 SLP109 DENSITY ALT 1400FT
11:00 am
V
70 °F 15 mi 10.000 ft 120° 120° 6 kt METAR CYND 011500Z CCA 12006KT 060V150 15SM SCT035 BKN100 OVC240 21/16 A2984 RMK SC3AC4CI1 PRESFR SLP106 DENSITY ALT 1100FT
10:00 am
V
70 °F 15 mi 9.200 ft 290° 290° 6 kt METAR CYND 011400Z 29006KT 270V350 15SM SCT038 BKN092 OVC160 21/16 A2991 RMK SC3AC2AC3 SLP129 DENSITY ALT 1000FT
9:31 am
V
70 °F 15 mi 9.000 ft 300° 300° 9 kt METAR CYND 011331Z 30009KT 260V320 15SM SCT032 SCT047 BKN090 OVC150 21/17 A2992 RMK SC3SC1AC1AC2 SLP133 DENSITY ALT 1000FT
9:15 am
V
72 °F 15 mi 8.000 ft 260° 260° 6 kt METAR CYND 011315Z 26006KT 250V350 15SM -SHRA SCT045 BKN080 OVC150 22/18 A2991 RMK SC3AC2AC3 CVCTV CLD EMBD PRESRR SLP131 DENSITY ALT 1100FT
9:00 am
V
72 °F 15 mi 15.000 ft 290° 290° 5 kt METAR CYND 011300Z 29005KT 15SM SCT084 BKN150 OVC220 22/17 A2989 RMK AC4AC3CI1 SLP123 DENSITY ALT 1100FT
8:00 am
V
70 °F 15 mi 12.000 ft 260° 260° 2 kt METAR CYND 011200Z 26002KT 15SM SCT086 BKN120 BKN150 BKN220 21/17 A2987 RMK AC3AC2AC1CI1 PRESRR SLP118 DENSITY ALT 1000FT
7:00 am
V
66 °F 15 mi 14.000 ft 040° 040° 3 kt METAR CYND 011100Z 04003KT 15SM BKN140 BKN220 19/17 A2984 RMK AC7CI1 CI TR SLP108 DENSITY ALT 900FT

30 juin 2022

Temps Code Temps Temp. Vue Base cloud Vent METAR/SPECI
9:00 pm
V
72 °F 15 mi 18.000 ft 170° 170° 3 kt METAR CYND 010100Z 17003KT 15SM FEW065 SCT100 BKN180 BKN250 22/13 A2998 RMK SC2AC1AC2CI2 LAST STFD OBS/NXT 011100Z SLP154 DENSITY ALT 1000FT
8:00 pm
V
73 °F 15 mi 20.000 ft 150° 150° 4 kt METAR CYND 010000Z 15004KT 120V200 15SM FEW040 SCT100 BKN200 23/13 A2999 RMK SC1AC2CI4 SLP157 DENSITY ALT 1100FT
7:00 pm
V
73 °F 15 mi 22.000 ft 180° 180° 7 kt METAR CYND 302300Z 18007KT 15SM FEW045 FEW100 BKN220 23/15 A3002 RMK CU1AC2CI5 CU TR SLP167 DENSITY ALT 1200FT
6:00 pm
V
77 °F 15 mi 23.000 ft 190° 190° 5 kt METAR CYND 302200Z 19005KT 160V240 15SM FEW045 FEW110 BKN230 25/14 A3003 RMK CU1AC2CI5 CU TR SLP173 DENSITY ALT 1400FT
5:00 pm
V
77 °F 15 mi 22.000 ft 190° 190° 7 kt METAR CYND 302100Z 19007KT 120V210 15SM FEW045 SCT110 BKN220 25/12 A3006 RMK CF1AC3CI4 CF TR SLP180 DENSITY ALT 1300FT
4:00 pm
V
73 °F 15 mi 9.500 ft 150° 150° 7 kt METAR CYND 302000Z 15007KT 120V200 15SM FEW047 BKN095 BKN160 23/13 A3008 RMK SC2AC4AC1 SLP189 DENSITY ALT 1100FT
3:00 pm
V
73 °F 15 mi 14.000 ft 180° 180° 8 kt METAR CYND 301900Z 18008KT 160V240 15SM SCT047 OVC140 23/12 A3009 RMK SC3AC5 SLP193 DENSITY ALT 1000FT
2:00 pm
V
72 °F 15 mi 11.000 ft 130° 130° 9 kt METAR CYND 301800Z 13009KT 120V180 15SM FEW043 BKN110 BKN160 22/12 A3007 RMK CU2AC3AC2 PRESFR SLP185 DENSITY ALT 1000FT
1:00 pm
V
73 °F 15 mi 14.000 ft 200° 200° 6 kt METAR CYND 301700Z 20006KT 160V240 15SM SCT040 BKN140 BKN240 23/14 A3013 RMK CU3AC2CI1 SLP206 DENSITY ALT 1000FT
12:00 pm
V
70 °F 15 mi 24.000 ft 150° 150° 2 kt METAR CYND 301600Z 15002KT 15SM FEW022 BKN240 21/16 A3016 RMK CU1CS6 SLP217 DENSITY ALT 700FT
11:00 am
V
64 °F 15 mi 24.000 ft Var Var 2 kt METAR CYND 301500Z VRB02KT 15SM FEW010 FEW110 BKN240 18/15 A3021 RMK CU1AC1CI5 AC TR SLP232 DENSITY ALT 300FT
10:39 am
V
63 °F 15 mi 24.000 ft Var 000° 0 kt METAR CYND 301439Z 00000KT 15SM FEW009 SCT110 BKN240 17/15 A3022 RMK SF2AC2CS3 SLP237
10:26 am
I
61 °F 15 mi 800 ft 090° 090° 3 kt METAR CYND 301426Z 09003KT 020V180 15SM BKN008 BKN110 16/15 A3022 RMK SF5AC2 SLP238
10:00 am
I
59 °F 10 mi 500 ft 060° 060° 2 kt METAR CYND 301400Z 06002KT 10SM OVC005 15/14 A3023 RMK ST8 SLP240
9:53 am
I
59 °F 10 mi 500 ft 070° 070° 3 kt METAR CYND 301353Z 07003KT 10SM OVC005 15/14 A3023 RMK ST8 SLP240
9:20 am
L
59 °F 5 mi 300 ft 090° 090° 5 kt METAR CYND 301320Z 09005KT 070V150 5SM BR BCFG OVC003 15/14 A3022 RMK FG3ST5 SLP237
9:16 am
L
57 °F 2 mi 300 ft Var Var 3 kt METAR CYND 301316Z VRB03KT 2SM BR BCFG VV003 14/14 A3022 RMK FG8 SLP237
9:07 am
L
57 °F 1 mi 200 ft Var 000° 0 kt METAR CYND 301307Z 00000KT 1SM BR PRFG VV002 14/14 A3022 RMK FG8 VIS W 3 SLP238
8:44 am
L
57 °F ½ mi 200 ft Var Var 4 kt METAR CYND 301244Z VRB04KT 1/2SM FG VV002 14/14 A3023 RMK FG8 SLP241
8:19 am
L
57 °F ¼ mi 200 ft Var Var 2 kt METAR CYND 301219Z VRB02KT 1/4SM FG VV002 14/14 A3023 RMK FG8 SLP239
8:00 am
L
55 °F ⅛ mi 200 ft 060° 060° 4 kt METAR CYND 301200Z 06004KT 1/8SM FG VV002 13/13 A3022 RMK FG8 SLP236
7:54 am
L
55 °F ⅛ mi 200 ft 080° 080° 3 kt METAR CYND 301154Z 08003KT 1/8SM FG VV002 13/13 A3022 RMK FG8 SLP236
7:36 am
L
55 °F ⅜ mi 200 ft 080° 080° 4 kt METAR CYND 301136Z 08004KT 3/8SM FG VV002 13/13 A3022 RMK FG8 SLP235
7:25 am
L
55 °F ½ mi 200 ft 090° 090° 4 kt METAR CYND 301125Z 09004KT 1/2SM FG BKN002 BKN240 13/13 A3021 RMK FG4SF1CI2 VIS SW-N 8 SLP234
7:00 am
V
55 °F 8 mi 24.000 ft Var Var 2 kt METAR CYND 301100Z VRB02KT 8SM VCFG FEW002 BKN240 13/12 A3022 RMK FG1SF1CI5 FG E SLP235
Données plus anciennes

Télécharge notre application

Un accès facile à toute la météo aéronautique sur ton téléphone portable et ta tablette.
Avec de nombreuses fonctionnalités non disponibles sur le site Web, comme la prise en charge hors ligne et une liste personnelle d'aéroports.

Nous et des tiers suivons ton comportement sur Internet sur notre site Web à l'aide de cookies. Si tu continues, nous supposons que tu acceptes notre politique en matière de cookies. Apprendre plus